Lexington, KY

10:37 AM EDT on September 20, 2014 (GMT -0400)
Mount Sterling-Montgomery County | Change Station
CLOSE
Current Station
Airport
Location: Mount Sterling,
Elevation: 1020 ft
Nearby Weather Stations

Elev 1020 ft 38.06 °N, 83.98 °W | Updated 22 minutes ago

Overcast
Overcast
70 °F
Feels Like 70 °F
N
10
Wind Variable Wind from SW

Today
High -- | Low -- °F
--% Chance of Precip.
Yesterday
High -- | Low -- °F
Precip. -- in
7:23 AM 7:38 PM
Waning Crescent, 12% visible
Pressure 30.17 in
Visibility 10.0 miles
Clouds Scattered Clouds 4400 ft
Scattered Clouds 8000 ft
Dew Point 61 °F
Humidity 73%
Rainfall 0.00 in
Snow Depth Not available.
UV 3 out of 12
Pollen 6.20 out of 12
Ozone Good
PM2.5 Good
Flu Activity Not available.
METAR KIOB 201415Z AUTO 23009KT 10SM SCT044 SCT080 21/16 A3017 RMK AO2

More Conditions Fewer Conditions

Pressure 30.17 in
Visibility 10.0 miles
Clouds Scattered Clouds 4400 ft
Scattered Clouds 8000 ft
Dew Point 61 °F
Humidity 73%
Rainfall 0.00 in
Snow Depth Not available.
UV 3 out of 12
Pollen 6.20 out of 12
Ozone Good
PM2.5 Good
Flu Activity Not available.
METAR KIOB 201415Z AUTO 23009KT 10SM SCT044 SCT080 21/16 A3017 RMK AO2

More Conditions Fewer Conditions

10-Day Weather Forecast

Almanac

Astronomy

Sep. 20, 2014 Rise Set
Actual Time 7:23 AM EDT 7:38 PM EDT
Civil Twilight 6:57 AM EDT 8:04 PM EDT
Nautical Twilight 6:26 AM EDT 8:35 PM EDT
Astronomical Twilight 5:55 AM EDT 9:06 PM EDT
Moon 4:04 AM EDT 5:38 PM EDT
Length of Visible Light 13h 06m
Length of Day
12h 14m
Tomorrow will be 2m 25s shorter.
Waning Crescent, 12% of the Moon is Illuminated
Today
Waning Crescent
Sep 24
New
Oct 1
First Quarter
Oct 8
Full
Oct 15
Last Quarter

Today's Extremes

State Highs State Lows

Community

WunderPhotos

Upload Photos

1,754,872 photos uploaded!

WunderBlogs® & News

Nearby

Air Quality

  Air Quality AQ Index Pollutant
Yesterday Good
OZONE
Yesterday Good
PM2.5
Current Good
PM2.5
Current Good
OZONE
Saturday Good
OZONE

Snow Depth

Station Depth Elevation
No new snow has been reported.

Earthquake Activity

City Distance Mag. Time & Date
No recent earthquake activity has been reported nearby.
Minimum magnitude displayed is 2.5.

Coastal Water Temperatures

Place Temperature
No Stations Reporting

Nearby Weather Stations